Nearby METAR Reports

 

KLXT - Lees Summit Muni, Missouri, USA
Distance from station: E 5mi, 9km
Updated: Mon, 30-May-2016 12:53pm CDT
Clear
Clear
 Wind from SSE
Wind: SSE 9 mph , 15 km/h
Temperature: 81°F , 27°C
Heat Index: 83°F , 28°C
Dew Point: 66°F , 19°C
Humidity: 62%
Barometer: 30.01 inHg , 1016.3 hPa
Clouds: Clear
Visibility: 10 miles , 16 km
2016/05/30 17:53 KLXT 301753Z AUTO 15008KT 10SM CLR 27/19 A3001 RMK AO2 SLP154 T02720189 10272 20189 58015
KMKC - Kansas City/Dntn, Missouri, USA
Distance from station: NW 12mi, 19km
Updated: Mon, 30-May-2016 12:54pm CDT
Clear
Clear
 Wind from S
Wind: S 8 mph , 13 km/h
Temperature: 84°F , 29°C
Heat Index: 86°F , 30°C
Dew Point: 66°F , 19°C
Humidity: 55%
Barometer: 29.99 inHg , 1015.6 hPa
Clouds: Clear
Visibility: 10 miles , 16 km
2016/05/30 17:54 KMKC 301754Z 17007KT 10SM CLR 29/19 A2999 RMK AO2 SLP146 T02940189 10294 20194 56015
 
KIXD - Olathe/Industria, Kansas, USA
Distance from station: WSW 25mi, 41km
Updated: Mon, 30-May-2016 12:53pm CDT
Few Clouds
Few Clouds
 Wind from S
Wind: S 9 mph , 15 km/h
Temperature: 82°F , 28°C
Heat Index: 84°F , 29°C
Dew Point: 66°F , 19°C
Humidity: 58%
Barometer: 30.00 inHg , 1015.9 hPa
Clouds: Few Clouds
Visibility: 10 miles , 16 km
Cloud details: Few Clouds 3600 ft
2016/05/30 17:53 KIXD 301753Z 17008KT 10SM FEW036 28/19 A3000 RMK AO2 LTG DSNT S AND SW SLP148 T02830194 10283 20183 58016
KMCI - Kansas City/Intl, Missouri, USA
Distance from station: NW 26mi, 42km
Updated: Mon, 30-May-2016 12:53pm CDT
Mostly cloudy
Mostly cloudy
 Wind from S
Wind: S 15 mph , 24 km/h, Gust: 22 mph , 35 km/h
Temperature: 84°F , 29°C
Heat Index: 85°F , 29°C
Dew Point: 64°F , 18°C
Humidity: 51%
Barometer: 30.00 inHg , 1015.9 hPa
Clouds: Mostly cloudy
Visibility: 10 miles , 16 km
Cloud details: Few Clouds 4400 ft
Mostly cloudy 25000 ft
2016/05/30 17:53 KMCI 301753Z 18013G19KT 10SM FEW044 BKN250 29/18 A3000 RMK AO2 SLP148 T02890178 10289 20183 58015 $
 
KRCM - Warrensburg Skyh, Missouri, USA
Distance from station: ESE 38mi, 62km
Updated: Mon, 30-May-2016 1:15pm CDT
Clear
Clear
 Wind from SE
Wind: SE 8 mph , 13 km/h
Temperature: 82°F , 28°C
Heat Index: 83°F , 28°C
Dew Point: 63°F , 17°C
Humidity: 51%
Barometer: 30.01 inHg , 1016.3 hPa
Clouds: Clear
Visibility: 10 miles , 16 km
2016/05/30 18:15 KRCM 301815Z AUTO 14007KT 10SM CLR 28/17 A3001 RMK AO2
KLWC - Lawrence, Kansas, USA
Distance from station: W 40mi, 65km
Updated: Mon, 30-May-2016 12:52pm CDT
Few Clouds
Few Clouds
 Wind from S
Wind: S 13 mph , 20 km/h
Temperature: 82°F , 28°C
Heat Index: 84°F , 29°C
Dew Point: 66°F , 19°C
Humidity: 58%
Barometer: 29.99 inHg , 1015.6 hPa
Clouds: Few Clouds
Visibility: 10 miles , 16 km
Cloud details: Few Clouds 4000 ft
2016/05/30 17:52 KLWC 301752Z AUTO 19011KT 10SM FEW040 28/19 A2999 RMK AO2 LTG DSNT SE SLP148 T02830189 10289 20172 56016
 
KSZL - Whiteman Afb, Missouri, USA
Distance from station: ESE 53mi, 86km
Updated: Mon, 30-May-2016 12:58pm CDT
Few Clouds
Few Clouds
 Wind from SSW
Wind: SSW 7 mph , 11 km/h
Temperature: 84°F , 29°C
Heat Index: 85°F , 29°C
Dew Point: 64°F , 18°C
Humidity: 51%
Barometer: 30.01 inHg , 1016.3 hPa
Clouds: Few Clouds
Visibility: 10 miles , 16 km
Cloud details: Few Clouds 19000 ft
2016/05/30 17:58 KSZL 301758Z AUTO 20006KT 10SM FEW190 29/18 A3001 RMK AO2 SLP158 T02850182 10286 20192 57013 $
KSTJ - St. Joseph, Missouri, USA
Distance from station: NNW 59mi, 95km
Updated: Mon, 30-May-2016 12:53pm CDT
Clear
Clear
 Wind from SSW
Wind: SSW 9 mph , 15 km/h
Temperature: 84°F , 29°C
Heat Index: 84°F , 29°C
Dew Point: 61°F , 16°C
Humidity: 45%
Barometer: 29.98 inHg , 1015.2 hPa
Clouds: Clear
Visibility: 10 miles , 16 km
2016/05/30 17:53 KSTJ 301753Z 21008KT 10SM CLR 29/16 A2998 RMK AO2 SLP145 T02940156 10294 20183 58013 $
 
KGLY - Clinton, Missouri, USA
Distance from station: SE 61mi, 98km
Updated: Mon, 30-May-2016 12:55pm CDT
Clear
Clear
 Wind from SSE
Wind: SSE 9 mph , 15 km/h
Temperature: 82°F , 28°C
Heat Index: 84°F , 29°C
Dew Point: 66°F , 19°C
Humidity: 58%
Barometer: 30.03 inHg , 1016.9 hPa
Clouds: Clear
Visibility: 10 miles , 16 km
2016/05/30 17:55 KGLY 301755Z AUTO 15008KT 10SM CLR 28/19 A3003 RMK AO2
KFOE - Topeka/Forbes, Kansas, USA
Distance from station: W 64mi, 103km
Updated: Mon, 30-May-2016 12:53pm CDT
Clear
Clear
 Wind from SE
Wind: SE 7 mph , 11 km/h
Temperature: 82°F , 28°C
Heat Index: 84°F , 29°C
Dew Point: 66°F , 19°C
Humidity: 58%
Barometer: 29.99 inHg , 1015.6 hPa
Clouds: Clear
Visibility: 10 miles , 16 km
2016/05/30 17:53 KFOE 301753Z 14006KT 10SM CLR 28/19 A2999 RMK AO2 SLP146 T02830189 10283 20172 58014
 
KDMO - Sedalia, Missouri, USA
Distance from station: ESE 72mi, 116km
Updated: Mon, 30-May-2016 12:53pm CDT
Few Clouds
Few Clouds
 Wind from SE
Wind: SE 10 mph , 17 km/h
Temperature: 84°F , 29°C
Heat Index: 86°F , 30°C
Dew Point: 66°F , 19°C
Humidity: 55%
Barometer: 30.04 inHg , 1017.3 hPa
Clouds: Few Clouds
Visibility: 10 miles , 16 km
Cloud details: Few Clouds 4700 ft
2016/05/30 17:53 KDMO 301753Z AUTO 13009KT 100V170 10SM FEW047 29/19 A3004 RMK AO2 SLP164 T02940189 10294 20200 56013 $
KCDJ - Chillicothe, Missouri, USA
Distance from station: NE 74mi, 120km
Updated: Mon, 30-May-2016 12:52pm CDT

 Wind from varies
Wind: varies 7 mph , 11 km/h
Temperature: 84°F , 29°C
Heat Index: 86°F , 30°C
Dew Point: 66°F , 19°C
Humidity: 55%
Barometer: 30.01 inHg , 1016.3 hPa
2016/05/30 17:52 KCDJ 301752Z AUTO VRB06KT 29/19 A3001 RMK AO1 SLP151 T02940189 10294 20172 58010
 
KFNB - Falls City/Brenn, Nebraska, USA
Distance from station: NW 96mi, 154km
Updated: Mon, 30-May-2016 12:53pm CDT
Clear
Clear
 Wind from S
Wind: S 10 mph , 17 km/h
Temperature: 84°F , 29°C
Heat Index: 86°F , 30°C
Dew Point: 66°F , 19°C
Humidity: 55%
Barometer: 29.97 inHg , 1014.9 hPa
Clouds: Clear
Visibility: 10 miles , 16 km
2016/05/30 17:53 KFNB 301753Z AUTO 18009KT 10SM CLR 29/19 A2997 RMK AO2 SLP139 T02890189 10294 20194 58011
KVER - Boonville, Missouri, USA
Distance from station: E 96mi, 154km
Updated: Mon, 30-May-2016 12:55pm CDT
Partly cloudy
Partly cloudy
 Wind from SSE
Wind: SSE 5 mph , 7 km/h
Temperature: 84°F , 29°C
Heat Index: 85°F , 29°C
Dew Point: 63°F , 17°C
Humidity: 48%
Barometer: 30.03 inHg , 1016.9 hPa
Clouds: Partly cloudy
Visibility: 10 miles , 16 km
Cloud details: Partly cloudy 4600 ft
2016/05/30 17:55 KVER 301755Z AUTO 15004KT 10SM SCT046 29/17 A3003 RMK AO2 T02930171 10303 21068